Filippo Del Vecchio

Olheiro - Fiorentina
3 Dez 2028
Domingo
Processo

Personalidade

Adaptabilidade (18) Ambição (1) Controvérsia (12) Lealdade (14) Pressão (1) Profissionalismo (16) Espírito Esportivo (1) Temperamento (15)

Perfil

Estilo de Treinamento Democrático
Licença Continental Pro
Determinação 14
Gestão de Pessoas 9
Motivação 14
Disciplina 10
Satisfação no Trabalho
100%
Fadiga
0%
Função Olheiro
Salário 71.0K p/s
Contrato 14.03.2030

Desempenho

Comportamento Bom
Eficácia do Treinamento
54%
Desenvolvimento do Jogador
55%
Prevenção de Lesões
60%
Implementação Tática
65%

Eventos Recentes

Avaliou um jogador agora
Participou de uma reunião de recrutamento agora
Recomendou um alvo de transferência agora
Participou de uma reunião de recrutamento agora
Participou de uma reunião de recrutamento 7d atrás
Avaliou um jogador 7d atrás
Avaliou um jogador 7d atrás
Avaliou um jogador 7d atrás

Monitorando agora

120
Jogador Clube Status Habilidade Confiança Observado Última observação Último voto
Chris Rigg West Ham United Ativo 142 / 139 40% 5 29.11.2028 -
Louis Page Leicester City Ativo 136 / 142 40% 9 29.11.2028 -
Matteo Palma Udinese Ativo 134 / 146 40% 6 29.11.2028 -
Davinchi Getafe Ativo 128 / 132 40% 4 29.11.2028 -
Ezra Mayers West Ham United Ativo 130 / 136 40% 6 27.11.2028 -
Ronan Kpakio AC Milan Ativo 128 / 135 40% 3 27.11.2028 -
Moses Sesay Southampton Ativo 118 / 119 40% 2 27.11.2028 -
Daniel Banjaqui Benfica Ativo 132 / 132 40% 6 26.11.2028 -
Noah Markmann Esbjerg Ativo 124 / 131 40% 4 26.11.2028 -
Josh King Newcastle United Ativo 148 / 150 40% 2 26.11.2028 -
Celías Ingenthron Platense Ativo 118 / 131 40% 5 24.11.2028 -
Germán Barbas Racing Santander Ativo 119 / 130 40% 3 24.11.2028 -
Diego León Rotherham United Ativo 127 / 135 40% 5 24.11.2028 -
Miguel Figueiredo Benfica Ativo 127 / 124 40% 9 21.11.2028 -
Axel Tape Bayer Leverkusen Ativo 138 / 142 40% 4 21.11.2028 -
Rafael Mota Sporting CP Ativo 120 / 129 40% 3 21.11.2028 -
Felipe Pujol Vélez Ativo 111 / 123 40% 2 21.11.2028 -
Christos Mouzakitis Hull City Ativo 143 / 153 40% 5 17.11.2028 -
Ale Gomes Zaragoza Ativo 120 / 137 40% 2 17.11.2028 -
Harrison Armstrong Ipswich Town Ativo 140 / 146 40% 2 17.11.2028 -
Luka Vušković Tottenham Ativo 151 / 160 40% 5 16.11.2028 -
Andrija Bulatović Chamois Niortais Ativo 134 / 143 40% 3 16.11.2028 -
José Neto Benfica Ativo 126 / 139 40% 3 16.11.2028 -
Trey Nyoni Rotherham United Ativo 145 / 151 40% 9 14.11.2028 -
Matías Magdaleno Estudiantes Ativo 110 / 121 40% 6 14.11.2028 -
Salvador Blopá Wolverhampton Ativo 128 / 123 40% 3 14.11.2028 -
Eman Košpo Zorya Ativo 110 / 117 40% 3 12.11.2028 -
Aidan Borland Espanyol Ativo 114 / 126 40% 1 12.11.2028 -
Vitaly Bondarev Ural Ativo 110 / 126 40% 1 12.11.2028 -
Olivier Mambwa Young Boys Ativo 115 / 131 40% 3 09.11.2028 -
Ayyoub Bouaddi Stoke City Ativo 153 / 156 40% 4 09.11.2028 -
Callum Olusesi Tottenham Ativo 122 / 134 40% 1 09.11.2028 -
Federico Matarán Giana Erminio Ativo 108 / 124 40% 1 06.11.2028 -
Tyler Fletcher Rotherham United Ativo 118 / 123 40% 7 05.11.2028 -
Malte Heyde Esbjerg Ativo 114 / 132 40% 1 05.11.2028 -
Cheveyo Tsawa Club Brugge Ativo 131 / 137 40% 7 04.11.2028 -
Sergio Martínez Real Madrid Ativo 120 / 121 40% 1 04.11.2028 -
Tobías Ramírez River Plate Ativo 131 / 126 40% 5 02.11.2028 -
Alexis Vossah Toulouse FC Ativo 130 / 140 40% 1 02.11.2028 -
Alain Taho Pergolettese Ativo 110 / 115 52% 1 / 1m 01.11.2028 -
Riccardo Stronati Pergolettese Ativo 107 / 107 30% 1 / 1m 01.11.2028 -
Davide Bragantini Mantova Ativo 137 / 137 42% 1 / 1m 01.11.2028 -
Tommaso Marras Mantova Ativo 126 / 129 30% 1 / 1m 01.11.2028 -
Darryl Bakola Sassuolo Ativo 118 / 131 40% 1 23.10.2028 -
Kiani Inge Groningen Ativo 117 / 130 40% 5 21.10.2028 -
Aarón Martín Al-Qadisiyah Ativo 120 / 111 40% 3 21.10.2028 -
Tobías Andrada River Plate Ativo 118 / 121 40% 3 19.10.2028 -
Augusto Bando Ascoli Ativo 115 / 127 40% 7 15.10.2028 -
Andrey Ivlev Nizhniy Novgorod Ativo 116 / 123 40% 5 15.10.2028 -
Veljko Milosavljević Bournemouth Ativo 150 / 145 40% 5 15.10.2028 -
Abubacarr Sedi Kinteh Al-Ahli Ativo 139 / 128 40% 2 07.10.2028 -
Kyllian Antonio RC Lens Ativo 121 / 119 40% 1 07.10.2028 -
Alejandro Almaraz NK Celje Ativo 117 / 127 40% 2 06.10.2028 -
Riquelme Thompson-Jones Accrington Stanley Ativo 113 / 129 40% 5 03.10.2028 -
Felipe Obradovich Ferro Carril Oeste Ativo 109 / 121 40% 2 02.10.2028 -
Mirza Ćatović VfB Stuttgart Ativo 128 / 125 40% 1 25.09.2028 -
Rhys Chadwick Blackpool Ativo 109 / 119 40% 1 25.09.2028 -
Grady Makiobo Juventus Ativo 115 / 129 40% 1 24.09.2028 -
Triston Rowe Derby County Ativo 119 / 133 40% 1 23.09.2028 -
Honest Ahanor Atalanta Ativo 141 / 146 40% 1 23.09.2028 -
Dmitry Pestryakov Real Sociedad Ativo 121 / 129 40% 1 22.09.2028 -
Lamine Ballo Inter Ativo 112 / 118 40% 1 22.09.2028 -
Wout Gielen Juventus Ativo 110 / 116 40% 1 20.09.2028 -
Agustín Medina Lanús Ativo 119 / 120 40% 1 18.09.2028 -
Matias Mancuso Inter Ativo 112 / 115 40% 1 18.09.2028 -
Jayden Ngwashi Manchester United Ativo 116 / 121 40% 1 17.09.2028 -
Jaydan Kamason Manchester United Ativo 116 / 116 40% 1 16.09.2028 -
Francesco Verde Juventus Ativo 112 / 126 40% 1 13.09.2028 -
Ayden Heaven Portsmouth Ativo 151 / 159 40% 7 12.09.2028 -
Bade Aluko Leicester City Ativo 126 / 128 40% 4 11.09.2028 -
Fabio Rispoli Como Ativo 120 / 126 40% 4 11.09.2028 -
Jan Bürger Northampton Town Ativo 123 / 125 40% 2 10.09.2028 -
Sam Alabi Newcastle United Ativo 111 / 123 40% 1 09.09.2028 -
Andrés Cuenca Como Ativo 118 / 126 40% 1 07.09.2028 -
Branimir Mlačić Udinese Ativo 126 / 121 40% 1 07.09.2028 -
Matai Akinmboni Bournemouth Ativo 114 / 113 40% 1 05.09.2028 -
Giovanni Leoni Lincoln City Ativo 145 / 151 40% 6 04.09.2028 -
Matthias Braunöder Carrarese Relatório pronto 132 / 128 95% 1 03.07.2028 -
Devyne Rensch Virtus Entella Relatório pronto 147 / 151 95% 1 07.06.2028 -
Edoardo Goldaniga Catania Relatório pronto 126 / 125 95% 1 02.06.2028 -
Franculino Brighton Ativo 147 / 147 40% 1 02.06.2028 -
Ibrahim Osman Norwich City Ativo 143 / 140 40% 1 02.06.2028 -
Jorthy Mokio ADO Den Haag Ativo 133 / 132 40% 6 29.05.2028 -
Jofre Torrents Ajax Ativo 132 / 141 40% 2 29.05.2028 -
Nejc Viher NK Maribor Ativo 118 / 132 40% 2 28.05.2028 -
David Blanc Le Havre AC Ativo 109 / 112 40% 1 28.05.2028 -
Andrea Cogoni Cosenza Ativo 109 / 111 40% 2 22.05.2028 -
Martim Cunha Porto Ativo 108 / 113 40% 4 22.05.2028 -
Josh Nichols Oldham Athletic Ativo 122 / 126 40% 3 21.05.2028 -
Bernardo Lima Porto Ativo 109 / 124 40% 6 17.05.2028 -
Sascha Britschgi AC Milan Ativo 122 / 128 40% 2 17.05.2028 -
Gustavo Albarracín Alavés Ativo 117 / 120 40% 1 19.04.2028 -
Halam Loboa Sevilla Ativo 125 / 120 40% 2 15.04.2028 -
Nicolas Sport Recife Ativo 108 / 106 40% 1 15.04.2028 -
Vittorio Magni Cesena Ativo 110 / 126 40% 1 11.04.2028 -
Thiago Silvero Vélez Ativo 129 / 130 40% 2 04.04.2028 -
Sergiu Perciun Torino Ativo 112 / 114 40% 1 03.04.2028 -
Jason Witsel PSV Ativo 125 / 136 40% 2 01.04.2028 -
Noahkai Banks FC Augsburg Ativo 140 / 138 40% 1 24.03.2028 -
Kacper Sezonienko Hellas Verona Ativo 115 / 118 42% 1 / 1m 19.01.2028 -
Luca D'Andrea Sassuolo Ativo 127 / 130 30% 1 / 1m 19.01.2028 -
Jaygo van Ommeren Utrecht Ativo 102 / 121 40% 2 21.05.2027 -
Bence Dárdai VfL Wolfsburg Ativo 131 / 127 40% 1 14.05.2027 -
Eliás Montiel Borussia Dortmund Ativo 130 / 132 40% 1 14.05.2027 -
Samuele di Benedetto Twente Ativo 112 / 119 40% 2 06.05.2027 -
Erick Dolly Black Aces Ativo 111 / 112 40% 1 01.04.2027 -
Filippo Distefano Empoli Ativo 118 / 120 40% 1 01.04.2027 -
Sindre Walle Egeli Udinese Ativo 131 / 125 40% 2 28.03.2027 -
David Romero Parma Ativo 126 / 132 40% 1 28.03.2027 -
Manfred Ugalde Spartak Moscow Ativo 128 / 138 40% 1 25.03.2027 -
Jeff Ekhator Juventus Ativo 128 / 140 40% 1 21.03.2027 Mais informações
Maksim Samorodov Akhmat Grozny Ativo 124 / 121 40% 1 18.03.2027 -
Giorgi Kvernadze Frosinone Ativo 123 / 132 40% 1 18.03.2027 -
Ádin Molnár MTK Budapest Ativo 108 / 126 40% 1 08.03.2027 -
José Martínes CSKA 1948 Ativo 109 / 102 40% 1 07.03.2027 -
Massimo Zilli Spezia Ativo 108 / 105 40% 1 04.03.2027 -
Luca Pandolfi Avellino Ativo 115 / 115 30% 1 / 1m 20.01.2027 -
Bogdan Kostić Partizan Ativo 112 / 117 30% 1 / 1m 04.11.2026 -
Federico Tonin AlbinoLeffe Ativo 79 / 84 30% 1 / 1m 04.11.2026 -
Fali Candé Sassuolo Ativo 124 / 112 83% 1 17.08.2026 Aprovar